Time;durP1;ratioP1;P1;durP2;ratioP2;P2;SDS_P1;SDS_P2;PMS_P1;PMS_P2;Temp;Humidity;BMP_temperature;BMP_pressure;BME280_temperature;BME280_humidity;BME280_pressure;Samples;Min_cycle;Max_cycle;Signal;HPM_P1;HPM_P2
2022/09/14 00:02:00;;;;;;;0.40;0.40;;;;;;;;;;7380430;19;20182;-76
2022/09/14 00:04:25;;;;;;;0.30;0.30;;;;;;;;;;7373048;19;20156;-75
2022/09/14 00:06:51;;;;;;;0.40;0.40;;;;;;;;;;7379680;19;20615;-76
2022/09/14 00:09:21;;;;;;;0.40;0.40;;;;;;;;;;7381418;19;20137;-76
2022/09/14 00:11:47;;;;;;;0.30;0.30;;;;;;;;;;7381890;19;20115;-76
2022/09/14 00:14:12;;;;;;;0.73;0.73;;;;;;;;;;7381358;19;20129;-76
2022/09/14 00:16:39;;;;;;;0.30;0.30;;;;;;;;;;7384899;19;20121;-76
2022/09/14 00:19:18;;;;;;;0.40;0.40;;;;;;;;;;7383436;19;20177;-76
2022/09/14 00:21:44;;;;;;;26.08;1.30;;;;;;;;;;7385750;19;20125;-74
2022/09/14 00:24:10;;;;;;;0.63;0.63;;;;;;;;;;7383337;19;20554;-76
2022/09/14 00:26:36;;;;;;;0.40;0.40;;;;;;;;;;7382433;19;20200;-76
2022/09/14 00:29:03;;;;;;;0.30;0.30;;;;;;;;;;7378404;19;20151;-76
2022/09/14 00:31:30;;;;;;;0.30;0.30;;;;;;;;;;7376734;19;20105;-76
2022/09/14 00:33:55;;;;;;;0.30;0.30;;;;;;;;;;7378707;19;20167;-76
2022/09/14 00:36:25;;;;;;;0.30;0.30;;;;;;;;;;7377564;19;20566;-77
2022/09/14 00:38:51;;;;;;;0.30;0.30;;;;;;;;;;7377546;19;20137;-74
2022/09/14 00:41:21;;;;;;;0.52;0.52;;;;;;;;;;7378972;19;20165;-75
2022/09/14 00:44:26;;;;;;;0.30;0.30;;;;;;;;;;7378706;19;20125;-76
2022/09/14 00:47:00;;;;;;;0.30;0.30;;;;;;;;;;7381659;19;20610;-76
2022/09/14 00:49:30;;;;;;;0.40;0.40;;;;;;;;;;7382404;19;20121;-76
2022/09/14 00:51:59;;;;;;;0.30;0.30;;;;;;;;;;7384830;19;20460;-77
2022/09/14 00:54:25;;;;;;;0.40;0.40;;;;;;;;;;7380927;19;20160;-77
2022/09/14 00:56:51;;;;;;;0.30;0.30;;;;;;;;;;7383479;19;20113;-76
2022/09/14 00:59:21;;;;;;;0.30;0.30;;;;;;;;;;7387753;19;20137;-75
2022/09/14 01:01:47;;;;;;;0.40;0.40;;;;;;;;;;7386331;19;20599;-76
2022/09/14 01:04:12;;;;;;;0.38;0.38;;;;;;;;;;7387504;19;20152;-76
2022/09/14 01:06:54;;;;;;;0.30;0.30;;;;;;;;;;7389189;19;20136;-75
2022/09/14 01:09:23;;;;;;;0.30;0.30;;;;;;;;;;7381742;19;20117;-76
2022/09/14 01:11:57;;;;;;;0.30;0.30;;;;;;;;;;7386051;19;20110;-76
2022/09/14 01:14:46;;;;;;;0.30;0.30;;;;;;;;;;7386022;19;20135;-76
2022/09/14 01:17:20;;;;;;;0.63;0.63;;;;;;;;;;7388381;19;20132;-75
2022/09/14 01:20:25;;;;;;;0.30;0.30;;;;;;;;;;7387489;19;20143;-76
2022/09/14 01:23:05;;;;;;;0.30;0.30;;;;;;;;;;7383242;19;20641;-75
2022/09/14 01:26:08;;;;;;;0.30;0.30;;;;;;;;;;7386282;19;20124;-75
2022/09/14 01:28:42;;;;;;;0.30;0.30;;;;;;;;;;7386309;19;20122;-76
2022/09/14 01:31:46;;;;;;;0.30;0.30;;;;;;;;;;7389847;19;20500;-75
2022/09/14 01:34:15;;;;;;;0.30;0.30;;;;;;;;;;7384658;19;20136;-75
2022/09/14 01:36:46;;;;;;;0.30;0.30;;;;;;;;;;7385089;19;20127;-75
2022/09/14 01:39:13;;;;;;;0.30;0.30;;;;;;;;;;7385325;19;20754;-75
2022/09/14 01:41:38;;;;;;;0.30;0.30;;;;;;;;;;7385984;19;20113;-76
2022/09/14 01:44:24;;;;;;;0.40;0.40;;;;;;;;;;7383388;19;20200;-76
2022/09/14 01:46:53;;;;;;;0.40;0.40;;;;;;;;;;7382921;19;20146;-75
2022/09/14 01:49:37;;;;;;;0.40;0.40;;;;;;;;;;7385520;19;20125;-76
2022/09/14 01:52:13;;;;;;;0.75;0.75;;;;;;;;;;7388805;19;20125;-76
2022/09/14 01:54:42;;;;;;;0.30;0.30;;;;;;;;;;7381089;19;20132;-76
2022/09/14 01:57:17;;;;;;;0.73;0.73;;;;;;;;;;7382818;19;20121;-76
2022/09/14 01:59:44;;;;;;;0.30;0.30;;;;;;;;;;7382736;19;20131;-76
2022/09/14 02:02:16;;;;;;;1.15;1.05;;;;;;;;;;7382479;19;20596;-76
2022/09/14 02:05:02;;;;;;;0.30;0.30;;;;;;;;;;7378466;19;20129;-74
2022/09/14 02:07:27;;;;;;;0.32;0.32;;;;;;;;;;7381569;19;20128;-76
2022/09/14 02:09:53;;;;;;;0.30;0.30;;;;;;;;;;7389240;19;20532;-75
2022/09/14 02:12:19;;;;;;;0.50;0.50;;;;;;;;;;7389393;19;20536;-76
2022/09/14 02:14:45;;;;;;;0.32;0.32;;;;;;;;;;7386999;19;20159;-76
2022/09/14 02:17:11;;;;;;;0.25;0.25;;;;;;;;;;7389084;19;20603;-77
2022/09/14 02:19:43;;;;;;;0.30;0.30;;;;;;;;;;7389126;19;20125;-76
2022/09/14 02:22:08;;;;;;;0.35;0.35;;;;;;;;;;7389048;19;20481;-75
2022/09/14 02:24:33;;;;;;;0.40;0.40;;;;;;;;;;7384769;19;20161;-76
2022/09/14 02:26:59;;;;;;;0.50;0.50;;;;;;;;;;7384826;19;20105;-76
2022/09/14 02:29:25;;;;;;;0.40;0.40;;;;;;;;;;7385539;19;20116;-75
2022/09/14 02:32:19;;;;;;;0.50;0.50;;;;;;;;;;7390653;19;20338;-76
2022/09/14 02:34:50;;;;;;;0.30;0.30;;;;;;;;;;7387430;19;20621;-76
2022/09/14 02:37:19;;;;;;;0.30;0.30;;;;;;;;;;7386762;19;20117;-76
2022/09/14 02:39:44;;;;;;;0.30;0.30;;;;;;;;;;7388239;19;20213;-76
2022/09/14 02:42:21;;;;;;;1.25;1.25;;;;;;;;;;7388643;19;20485;-76
2022/09/14 02:45:17;;;;;;;0.30;0.30;;;;;;;;;;7384936;19;20117;-76
2022/09/14 02:48:01;;;;;;;0.30;0.30;;;;;;;;;;7387786;19;20154;-76
2022/09/14 02:50:33;;;;;;;0.30;0.30;;;;;;;;;;7387439;19;20599;-76
2022/09/14 02:53:05;;;;;;;0.73;0.73;;;;;;;;;;7388874;19;20220;-76
2022/09/14 02:55:34;;;;;;;0.30;0.30;;;;;;;;;;7386194;19;20473;-75
2022/09/14 02:58:05;;;;;;;0.47;0.47;;;;;;;;;;7388574;19;20130;-76
2022/09/14 03:00:34;;;;;;;0.60;0.60;;;;;;;;;;7388536;19;20223;-75
2022/09/14 03:02:59;;;;;;;0.30;0.30;;;;;;;;;;7389212;19;20136;-77
2022/09/14 03:05:25;;;;;;;0.35;0.35;;;;;;;;;;7388135;19;20101;-76
2022/09/14 03:07:50;;;;;;;0.65;0.65;;;;;;;;;;7387502;19;20106;-75
2022/09/14 03:10:15;;;;;;;0.30;0.30;;;;;;;;;;7387038;19;20567;-76
2022/09/14 03:12:40;;;;;;;0.47;0.47;;;;;;;;;;7387153;19;20595;-75
2022/09/14 03:15:06;;;;;;;0.30;0.30;;;;;;;;;;7387878;19;20112;-76
2022/09/14 03:17:32;;;;;;;0.30;0.30;;;;;;;;;;7387610;19;20120;-77
2022/09/14 03:19:57;;;;;;;0.40;0.40;;;;;;;;;;7386475;19;20128;-76
2022/09/14 03:22:22;;;;;;;0.30;0.30;;;;;;;;;;7387299;19;20472;-75
2022/09/14 03:24:48;;;;;;;0.55;0.55;;;;;;;;;;7384843;19;20156;-76
2022/09/14 03:27:13;;;;;;;0.30;0.30;;;;;;;;;;7387056;19;20121;-76
2022/09/14 03:29:38;;;;;;;0.30;0.30;;;;;;;;;;7386369;19;20615;-76
2022/09/14 03:32:04;;;;;;;0.35;0.35;;;;;;;;;;7386934;19;20129;-76
2022/09/14 03:34:32;;;;;;;0.57;0.55;;;;;;;;;;7384923;19;20197;-76
2022/09/14 03:36:57;;;;;;;0.30;0.30;;;;;;;;;;7386854;19;20137;-76
2022/09/14 03:39:23;;;;;;;1.95;1.50;;;;;;;;;;7387023;19;20184;-77
2022/09/14 03:41:48;;;;;;;0.30;0.30;;;;;;;;;;7386274;19;20121;-76
2022/09/14 03:44:14;;;;;;;0.40;0.40;;;;;;;;;;7384452;19;20122;-76
2022/09/14 03:46:39;;;;;;;0.30;0.30;;;;;;;;;;7386006;19;20101;-76
2022/09/14 03:49:04;;;;;;;0.30;0.30;;;;;;;;;;7381519;19;20109;-76
2022/09/14 03:54:51;;;;;;;0.30;0.30;;;;;;;;;;7387743;19;20215;-76
2022/09/14 03:57:17;;;;;;;0.30;0.30;;;;;;;;;;7379823;19;20132;-76
2022/09/14 03:59:42;;;;;;;0.50;0.50;;;;;;;;;;7383257;19;20121;-76
2022/09/14 04:02:07;;;;;;;0.30;0.30;;;;;;;;;;7382866;19;20133;-76
2022/09/14 04:04:33;;;;;;;0.30;0.30;;;;;;;;;;7378182;19;20545;-76
2022/09/14 04:06:58;;;;;;;0.50;0.50;;;;;;;;;;7382920;19;20101;-75
2022/09/14 04:09:23;;;;;;;0.35;0.35;;;;;;;;;;7381429;19;20133;-76
2022/09/14 04:11:48;;;;;;;0.50;0.50;;;;;;;;;;7385380;19;20124;-76
2022/09/14 04:14:14;;;;;;;0.38;0.38;;;;;;;;;;7380923;19;20618;-76
2022/09/14 04:16:40;;;;;;;0.30;0.30;;;;;;;;;;7382486;19;20212;-76
2022/09/14 04:19:06;;;;;;;0.40;0.40;;;;;;;;;;7384583;19;20473;-76
2022/09/14 04:21:32;;;;;;;0.45;0.45;;;;;;;;;;7380449;19;20137;-74
2022/09/14 04:23:57;;;;;;;0.30;0.30;;;;;;;;;;7375468;19;20152;-76
2022/09/14 04:26:25;;;;;;;0.30;0.30;;;;;;;;;;7376843;19;20101;-76
2022/09/14 04:28:50;;;;;;;0.30;0.30;;;;;;;;;;7376325;19;20642;-76
2022/09/14 04:31:16;;;;;;;0.40;0.40;;;;;;;;;;7383228;19;20144;-76
2022/09/14 04:33:42;;;;;;;0.50;0.50;;;;;;;;;;7383529;19;20128;-76
2022/09/14 04:36:13;;;;;;;0.30;0.30;;;;;;;;;;7383513;19;20482;-76
2022/09/14 04:38:39;;;;;;;0.30;0.30;;;;;;;;;;7389807;19;20140;-76
2022/09/14 04:41:07;;;;;;;0.30;0.30;;;;;;;;;;7389699;19;20150;-76
2022/09/14 04:43:33;;;;;;;0.28;0.28;;;;;;;;;;7382888;19;20152;-76
2022/09/14 04:46:16;;;;;;;0.30;0.30;;;;;;;;;;7384100;19;20604;-75
2022/09/14 04:48:42;;;;;;;0.30;0.30;;;;;;;;;;7382870;19;20522;-76
2022/09/14 06:45:59;;;;;;;0.30;0.30;;;;;;;;;;7389822;19;20518;-86
2022/09/14 06:48:24;;;;;;;0.50;0.50;;;;;;;;;;7390541;19;20222;-86
2022/09/14 06:51:03;;;;;;;0.30;0.30;;;;;;;;;;7389485;19;20121;-87
2022/09/14 06:53:49;;;;;;;0.60;0.60;;;;;;;;;;7385037;19;20141;-88
2022/09/14 06:56:15;;;;;;;0.38;0.38;;;;;;;;;;7390923;19;20109;-85
2022/09/14 06:58:40;;;;;;;0.50;0.50;;;;;;;;;;7394168;19;20139;-87
2022/09/14 07:01:08;;;;;;;0.30;0.30;;;;;;;;;;7389139;19;20117;-86
2022/09/14 07:03:35;;;;;;;0.30;0.30;;;;;;;;;;7389449;19;20208;-85
2022/09/14 07:06:21;;;;;;;0.45;0.45;;;;;;;;;;7382341;19;20133;-85
2022/09/14 07:08:47;;;;;;;0.40;0.40;;;;;;;;;;7390425;19;20117;-88
2022/09/14 07:11:14;;;;;;;0.50;0.50;;;;;;;;;;7387908;19;20125;-87
2022/09/14 07:13:40;;;;;;;0.38;0.38;;;;;;;;;;7389595;19;20148;-87
2022/09/14 07:16:06;;;;;;;1.15;1.05;;;;;;;;;;7386981;19;20121;-85
2022/09/14 07:18:32;;;;;;;0.35;0.35;;;;;;;;;;7393475;19;20144;-84
2022/09/14 07:21:10;;;;;;;0.40;0.40;;;;;;;;;;7393453;19;20129;-87
2022/09/14 07:23:42;;;;;;;0.30;0.30;;;;;;;;;;7389984;19;20236;-87
2022/09/14 07:26:09;;;;;;;0.80;0.80;;;;;;;;;;7391646;19;20121;-88
2022/09/14 07:28:35;;;;;;;0.40;0.40;;;;;;;;;;7389147;19;20129;-85
2022/09/14 07:31:01;;;;;;;0.30;0.30;;;;;;;;;;7391942;19;20182;-88
2022/09/14 07:33:27;;;;;;;0.40;0.40;;;;;;;;;;7388884;19;20152;-86
2022/09/14 07:35:52;;;;;;;12.23;1.25;;;;;;;;;;7386687;19;20649;-85
2022/09/14 07:38:21;;;;;;;0.45;0.45;;;;;;;;;;7389105;19;20129;-85
2022/09/14 07:40:46;;;;;;;0.30;0.30;;;;;;;;;;7391288;19;20136;-84
2022/09/14 07:43:34;;;;;;;0.30;0.30;;;;;;;;;;7389713;19;20138;-86
2022/09/14 07:46:04;;;;;;;0.30;0.30;;;;;;;;;;7391263;19;20124;-88
2022/09/14 07:48:30;;;;;;;0.30;0.30;;;;;;;;;;7391753;19;20128;-85
2022/09/14 07:51:00;;;;;;;0.30;0.30;;;;;;;;;;7390567;19;20173;-85
2022/09/14 07:53:25;;;;;;;1.67;1.58;;;;;;;;;;7391452;19;20209;-85
2022/09/14 07:55:51;;;;;;;0.70;0.70;;;;;;;;;;7394522;19;20155;-87
2022/09/14 07:58:16;;;;;;;0.75;0.75;;;;;;;;;;7399236;19;20447;-86
2022/09/14 08:00:42;;;;;;;0.38;0.38;;;;;;;;;;7399047;19;20162;-85
2022/09/14 08:03:08;;;;;;;2.00;1.13;;;;;;;;;;7391484;19;20131;-85
2022/09/14 08:05:33;;;;;;;0.40;0.40;;;;;;;;;;7388549;19;20117;-85
2022/09/14 08:08:00;;;;;;;0.45;0.45;;;;;;;;;;7390621;19;20616;-85
2022/09/14 08:10:26;;;;;;;1.00;0.50;;;;;;;;;;7389909;19;20536;-85
2022/09/14 08:12:52;;;;;;;0.70;0.70;;;;;;;;;;7388936;19;20132;-85
2022/09/14 08:15:22;;;;;;;0.90;0.90;;;;;;;;;;7393220;19;20460;-85
2022/09/14 08:17:48;;;;;;;0.22;0.22;;;;;;;;;;7393629;19;20140;-85
2022/09/14 08:20:15;;;;;;;0.30;0.30;;;;;;;;;;7397558;19;20119;-85
2022/09/14 08:22:43;;;;;;;0.30;0.30;;;;;;;;;;7401498;19;20129;-86
2022/09/14 08:25:10;;;;;;;0.40;0.40;;;;;;;;;;7403058;19;20585;-86
2022/09/14 08:27:35;;;;;;;0.30;0.30;;;;;;;;;;7394114;19;20132;-85
2022/09/14 08:30:01;;;;;;;0.50;0.50;;;;;;;;;;7390682;19;20128;-85
2022/09/14 08:32:26;;;;;;;0.40;0.40;;;;;;;;;;7392150;19;20597;-84
2022/09/14 08:34:51;;;;;;;0.43;0.43;;;;;;;;;;7390292;19;20156;-84
2022/09/14 08:37:17;;;;;;;0.30;0.30;;;;;;;;;;7392767;19;20150;-84
2022/09/14 08:39:42;;;;;;;1.58;1.25;;;;;;;;;;7396856;19;20137;-86
2022/09/14 08:42:13;;;;;;;0.93;0.93;;;;;;;;;;7399561;19;20133;-86
2022/09/14 08:44:41;;;;;;;0.60;0.60;;;;;;;;;;7395157;19;20185;-86
2022/09/14 08:47:15;;;;;;;0.35;0.35;;;;;;;;;;7396827;19;20132;-86
2022/09/14 08:49:45;;;;;;;0.50;0.50;;;;;;;;;;7395983;19;20153;-86
2022/09/14 08:52:25;;;;;;;0.30;0.30;;;;;;;;;;7393052;19;20125;-84
2022/09/14 08:54:56;;;;;;;0.30;0.30;;;;;;;;;;7390131;19;20156;-86
2022/09/14 08:57:31;;;;;;;0.35;0.35;;;;;;;;;;7390779;19;20121;-85
2022/09/14 09:00:14;;;;;;;0.47;0.47;;;;;;;;;;7392026;19;20120;-86
2022/09/14 09:02:50;;;;;;;0.30;0.30;;;;;;;;;;7390111;19;20113;-85
2022/09/14 09:05:26;;;;;;;0.52;0.50;;;;;;;;;;7393527;19;20121;-85
2022/09/14 09:08:19;;;;;;;0.65;0.65;;;;;;;;;;7398253;19;20128;-86
2022/09/14 09:10:46;;;;;;;0.40;0.40;;;;;;;;;;7399322;19;20129;-86
2022/09/14 09:13:17;;;;;;;0.40;0.40;;;;;;;;;;7392241;19;20177;-86
2022/09/14 09:15:51;;;;;;;0.57;0.57;;;;;;;;;;7394591;19;20129;-85
2022/09/14 09:18:39;;;;;;;0.93;0.93;;;;;;;;;;7404280;19;20120;-87
2022/09/14 09:21:10;;;;;;;0.30;0.30;;;;;;;;;;7402464;19;20530;-86
2022/09/14 09:23:36;;;;;;;0.30;0.30;;;;;;;;;;7401501;19;20153;-87
2022/09/14 09:26:24;;;;;;;0.40;0.40;;;;;;;;;;7400845;19;20125;-85
2022/09/14 09:28:51;;;;;;;0.40;0.40;;;;;;;;;;7400585;19;20153;-85
2022/09/14 09:31:19;;;;;;;0.95;0.95;;;;;;;;;;7398658;19;20570;-85
2022/09/14 09:33:48;;;;;;;0.50;0.50;;;;;;;;;;7400558;19;20153;-86
2022/09/14 09:36:14;;;;;;;2.25;0.73;;;;;;;;;;7402188;19;20734;-86
2022/09/14 09:38:40;;;;;;;1.15;1.15;;;;;;;;;;7402581;19;20502;-86
2022/09/14 09:41:18;;;;;;;0.30;0.30;;;;;;;;;;7397357;19;20125;-87
2022/09/14 09:44:05;;;;;;;0.93;0.93;;;;;;;;;;7397008;19;20161;-89
2022/09/14 09:46:32;;;;;;;0.38;0.38;;;;;;;;;;7395491;19;20589;-89
2022/09/14 09:49:02;;;;;;;0.65;0.65;;;;;;;;;;7397969;19;20597;-90
2022/09/14 09:51:29;;;;;;;0.65;0.65;;;;;;;;;;7399821;19;20129;-89
2022/09/14 09:54:13;;;;;;;0.47;0.47;;;;;;;;;;7396941;19;20157;-89
2022/09/14 09:56:50;;;;;;;1.48;0.60;;;;;;;;;;7397945;19;20125;-89
2022/09/14 09:59:26;;;;;;;0.73;0.73;;;;;;;;;;7398265;19;20617;-89
2022/09/14 10:01:54;;;;;;;1.00;1.00;;;;;;;;;;7397777;19;20109;-90
2022/09/14 10:04:35;;;;;;;0.40;0.40;;;;;;;;;;7390496;19;20156;-89
2022/09/14 10:07:01;;;;;;;0.55;0.55;;;;;;;;;;7392758;19;20582;-89
2022/09/14 10:09:27;;;;;;;0.30;0.30;;;;;;;;;;7394546;19;20149;-89
2022/09/14 10:12:21;;;;;;;1.58;1.48;;;;;;;;;;7396331;19;20125;-88
2022/09/14 10:14:46;;;;;;;0.55;0.55;;;;;;;;;;7393695;19;20149;-90
2022/09/14 10:17:20;;;;;;;1.02;1.02;;;;;;;;;;7397990;19;20129;-91
2022/09/14 10:19:54;;;;;;;0.82;0.82;;;;;;;;;;7397059;19;20109;-88
2022/09/14 10:25:13;;;;;;;0.32;0.32;;;;;;;;;;7387285;19;20203;-75
2022/09/14 10:27:55;;;;;;;3.03;1.48;;;;;;;;;;7386560;19;20113;-74
2022/09/14 10:30:27;;;;;;;0.30;0.30;;;;;;;;;;7384311;19;20109;-75
2022/09/14 10:33:08;;;;;;;0.40;0.40;;;;;;;;;;7386925;19;20113;-74
2022/09/14 10:35:45;;;;;;;0.93;0.85;;;;;;;;;;7377881;19;20297;-75
2022/09/14 10:38:24;;;;;;;0.40;0.40;;;;;;;;;;7389340;19;20113;-74
2022/09/14 10:40:58;;;;;;;0.43;0.43;;;;;;;;;;7379743;19;20524;-74
2022/09/14 10:43:37;;;;;;;0.30;0.30;;;;;;;;;;7383547;19;20125;-75
2022/09/14 10:46:03;;;;;;;0.38;0.38;;;;;;;;;;7380788;19;20128;-75
2022/09/14 10:49:09;;;;;;;0.82;0.82;;;;;;;;;;7388035;19;20460;-75
2022/09/14 10:52:02;;;;;;;0.30;0.30;;;;;;;;;;7381128;19;20563;-75
2022/09/14 10:55:09;;;;;;;0.57;0.50;;;;;;;;;;7380337;19;20152;-75
2022/09/14 10:57:45;;;;;;;0.32;0.32;;;;;;;;;;7368284;19;20125;-75
2022/09/14 11:00:13;;;;;;;0.77;0.77;;;;;;;;;;7377888;19;20113;-75
2022/09/14 11:02:51;;;;;;;1.05;1.00;;;;;;;;;;7382307;19;20579;-76
2022/09/14 11:05:21;;;;;;;0.68;0.68;;;;;;;;;;7385727;19;20794;-75
2022/09/14 11:08:28;;;;;;;0.30;0.30;;;;;;;;;;7387389;19;20101;-76
2022/09/14 11:11:08;;;;;;;0.52;0.52;;;;;;;;;;7382746;19;20147;-75
2022/09/14 11:13:43;;;;;;;0.40;0.40;;;;;;;;;;7386200;19;20117;-76
2022/09/14 11:16:14;;;;;;;0.50;0.50;;;;;;;;;;7388774;19;20108;-75
2022/09/14 11:18:48;;;;;;;0.40;0.40;;;;;;;;;;7386258;19;20125;-75
2022/09/14 11:21:52;;;;;;;0.40;0.40;;;;;;;;;;7387177;19;20129;-76
2022/09/14 11:24:27;;;;;;;0.30;0.30;;;;;;;;;;7389536;19;20196;-76
2022/09/14 11:27:07;;;;;;;0.73;0.73;;;;;;;;;;7385512;19;20132;-75
2022/09/14 11:29:38;;;;;;;0.45;0.45;;;;;;;;;;7385543;19;20339;-76
2022/09/14 11:32:29;;;;;;;0.35;0.35;;;;;;;;;;7384758;19;20117;-75
2022/09/14 11:35:12;;;;;;;0.38;0.38;;;;;;;;;;7381986;19;20145;-75
2022/09/14 11:37:41;;;;;;;1.25;1.20;;;;;;;;;;7383538;19;20148;-75
2022/09/14 11:40:16;;;;;;;0.30;0.30;;;;;;;;;;7381653;19;20476;-75
2022/09/14 11:42:54;;;;;;;0.63;0.63;;;;;;;;;;7382789;19;20147;-75
2022/09/14 11:45:33;;;;;;;0.73;0.73;;;;;;;;;;7383720;19;20137;-76
2022/09/14 11:48:16;;;;;;;0.40;0.40;;;;;;;;;;7382875;19;20586;-75
2022/09/14 11:50:44;;;;;;;0.40;0.40;;;;;;;;;;7378361;19;20478;-75
2022/09/14 11:53:14;;;;;;;0.43;0.43;;;;;;;;;;7380610;19;20168;-76
2022/09/14 11:55:43;;;;;;;0.40;0.40;;;;;;;;;;7382955;19;20120;-75
2022/09/14 11:58:30;;;;;;;0.47;0.47;;;;;;;;;;7381823;19;20128;-75
2022/09/14 12:01:04;;;;;;;0.30;0.30;;;;;;;;;;7379788;19;20871;-75
2022/09/14 12:03:45;;;;;;;0.40;0.40;;;;;;;;;;7381120;19;20129;-76
2022/09/14 12:06:29;;;;;;;0.70;0.70;;;;;;;;;;7382653;19;20149;-75
2022/09/14 12:09:20;;;;;;;2.72;1.55;;;;;;;;;;7378403;19;20121;-74
2022/09/14 12:11:47;;;;;;;0.95;0.95;;;;;;;;;;7384193;19;20113;-76
2022/09/14 12:14:29;;;;;;;0.40;0.40;;;;;;;;;;7381566;19;20152;-74
2022/09/14 12:17:16;;;;;;;0.40;0.40;;;;;;;;;;7380713;19;20121;-76
2022/09/14 12:19:43;;;;;;;1.17;1.08;;;;;;;;;;7381911;19;20109;-76
2022/09/14 12:22:26;;;;;;;1.55;0.90;;;;;;;;;;7380083;19;20145;-75
2022/09/14 12:25:01;;;;;;;0.32;0.32;;;;;;;;;;7379115;19;20200;-75
2022/09/14 12:27:30;;;;;;;0.30;0.30;;;;;;;;;;7383759;19;20128;-76
2022/09/14 12:29:55;;;;;;;0.50;0.50;;;;;;;;;;7381449;19;20139;-75
2022/09/14 12:32:53;;;;;;;0.32;0.32;;;;;;;;;;7382513;19;20583;-76
2022/09/14 12:35:37;;;;;;;0.30;0.30;;;;;;;;;;7380963;19;20137;-75
2022/09/14 12:38:37;;;;;;;0.55;0.55;;;;;;;;;;7383311;19;20132;-75
2022/09/14 12:41:09;;;;;;;0.30;0.30;;;;;;;;;;7383559;19;20117;-75
2022/09/14 12:43:34;;;;;;;0.50;0.50;;;;;;;;;;7383500;19;20502;-75
2022/09/14 12:46:02;;;;;;;0.77;0.77;;;;;;;;;;7386126;19;20109;-75
2022/09/14 12:48:53;;;;;;;0.30;0.30;;;;;;;;;;7381774;19;20140;-75
2022/09/14 12:51:31;;;;;;;0.50;0.50;;;;;;;;;;7385334;19;20117;-74
2022/09/14 12:54:01;;;;;;;0.30;0.30;;;;;;;;;;7391703;19;20135;-75
2022/09/14 12:56:48;;;;;;;0.30;0.30;;;;;;;;;;7391053;19;20157;-76
2022/09/14 12:59:32;;;;;;;0.40;0.40;;;;;;;;;;7390177;19;20121;-75
2022/09/14 13:02:13;;;;;;;0.30;0.30;;;;;;;;;;7387984;19;20128;-76
2022/09/14 13:04:40;;;;;;;0.40;0.40;;;;;;;;;;7386734;19;20133;-74
2022/09/14 13:07:12;;;;;;;0.30;0.30;;;;;;;;;;7388046;19;20129;-75
2022/09/14 13:10:03;;;;;;;0.82;0.82;;;;;;;;;;7389703;19;20121;-76
2022/09/14 13:12:42;;;;;;;0.57;0.57;;;;;;;;;;7388438;19;20136;-74
2022/09/14 13:15:22;;;;;;;0.93;0.93;;;;;;;;;;7388696;19;20603;-76
2022/09/14 13:18:17;;;;;;;1.38;1.27;;;;;;;;;;7392236;19;20121;-75
2022/09/14 13:20:49;;;;;;;0.30;0.30;;;;;;;;;;7385172;19;20188;-75
2022/09/14 13:23:25;;;;;;;0.40;0.40;;;;;;;;;;7387673;19;20630;-75
2022/09/14 13:25:50;;;;;;;0.30;0.30;;;;;;;;;;7390526;19;20105;-76
2022/09/14 13:28:17;;;;;;;0.40;0.40;;;;;;;;;;7390689;19;20128;-75
2022/09/14 13:30:52;;;;;;;0.30;0.30;;;;;;;;;;7388876;19;20476;-76
2022/09/14 13:33:18;;;;;;;0.30;0.30;;;;;;;;;;7387937;19;20129;-74
2022/09/14 13:35:48;;;;;;;0.30;0.30;;;;;;;;;;7390506;19;20636;-75
2022/09/14 13:38:19;;;;;;;0.40;0.40;;;;;;;;;;7387536;19;20125;-75
2022/09/14 13:40:46;;;;;;;0.63;0.63;;;;;;;;;;7386557;19;20144;-74
2022/09/14 13:43:11;;;;;;;0.30;0.30;;;;;;;;;;7386031;19;20232;-76
2022/09/14 13:45:37;;;;;;;0.30;0.30;;;;;;;;;;7388092;19;20109;-75
2022/09/14 13:48:04;;;;;;;0.77;0.77;;;;;;;;;;7388705;19;20784;-76
2022/09/14 13:50:29;;;;;;;0.30;0.30;;;;;;;;;;7379136;19;20125;-75
2022/09/14 13:52:55;;;;;;;0.30;0.30;;;;;;;;;;7389840;19;20140;-76
2022/09/14 13:55:32;;;;;;;0.30;0.30;;;;;;;;;;7387070;19;20125;-75
2022/09/14 13:58:07;;;;;;;0.60;0.60;;;;;;;;;;7386342;19;20591;-75
2022/09/14 14:01:03;;;;;;;1.30;0.75;;;;;;;;;;7388746;19;20623;-74
2022/09/14 14:03:40;;;;;;;0.30;0.30;;;;;;;;;;7386237;19;20633;-75
2022/09/14 14:06:19;;;;;;;0.30;0.30;;;;;;;;;;7389014;19;20117;-76
2022/09/14 14:08:53;;;;;;;0.30;0.30;;;;;;;;;;7387558;19;20133;-75
2022/09/14 14:11:26;;;;;;;0.35;0.35;;;;;;;;;;7391155;19;20590;-75
2022/09/14 14:19:02;;;;;;;0.40;0.40;;;;;;;;;;7380482;19;20188;-74
2022/09/14 14:21:30;;;;;;;0.40;0.40;;;;;;;;;;7386470;19;20121;-75
2022/09/14 14:24:23;;;;;;;0.30;0.30;;;;;;;;;;7385218;19;20121;-74
2022/09/14 14:26:51;;;;;;;0.30;0.30;;;;;;;;;;7386345;19;20128;-73
2022/09/14 14:29:17;;;;;;;0.47;0.47;;;;;;;;;;7378446;19;20491;-75
2022/09/14 14:31:43;;;;;;;0.50;0.50;;;;;;;;;;7381462;19;20113;-74
2022/09/14 14:37:30;;;;;;;0.52;0.52;;;;;;;;;;7384681;19;20109;-74
2022/09/14 14:39:55;;;;;;;0.30;0.30;;;;;;;;;;7384904;19;20117;-73
2022/09/14 14:42:20;;;;;;;1.35;1.25;;;;;;;;;;7384614;19;20128;-74
2022/09/14 14:44:46;;;;;;;0.30;0.30;;;;;;;;;;7384596;19;20601;-74
2022/09/14 14:47:12;;;;;;;0.30;0.30;;;;;;;;;;7380703;19;20607;-75
2022/09/14 14:49:37;;;;;;;0.40;0.40;;;;;;;;;;7377750;19;20118;-74
2022/09/14 14:52:03;;;;;;;0.40;0.40;;;;;;;;;;7376119;19;20116;-74
2022/09/14 14:57:50;;;;;;;0.82;0.80;;;;;;;;;;7382922;19;20118;-75
2022/09/14 15:03:49;;;;;;;0.30;0.30;;;;;;;;;;7382812;19;20195;-74
2022/09/14 15:06:22;;;;;;;0.30;0.30;;;;;;;;;;7381287;19;20580;-74
2022/09/14 15:08:54;;;;;;;0.40;0.40;;;;;;;;;;7383060;19;20105;-74
2022/09/14 15:11:20;;;;;;;0.30;0.30;;;;;;;;;;7373406;19;20133;-75
2022/09/14 15:13:46;;;;;;;0.40;0.40;;;;;;;;;;7377450;19;20389;-74
2022/09/14 15:22:55;;;;;;;0.40;0.40;;;;;;;;;;7386792;19;20111;-73
2022/09/14 15:25:20;;;;;;;0.30;0.30;;;;;;;;;;7383554;19;20188;-75
2022/09/14 15:27:46;;;;;;;0.30;0.30;;;;;;;;;;7383271;19;20113;-74
2022/09/14 15:30:12;;;;;;;1.08;0.50;;;;;;;;;;7374642;19;20149;-75
2022/09/14 15:32:38;;;;;;;0.40;0.32;;;;;;;;;;7380548;19;20141;-74
2022/09/14 15:35:05;;;;;;;0.30;0.30;;;;;;;;;;7378482;19;20634;-73
2022/09/14 15:37:30;;;;;;;0.70;0.70;;;;;;;;;;7384380;19;20455;-74
2022/09/14 15:39:55;;;;;;;0.40;0.40;;;;;;;;;;7383195;19;20125;-74
2022/09/14 15:42:21;;;;;;;0.30;0.30;;;;;;;;;;7381029;19;20121;-75
2022/09/14 15:44:46;;;;;;;0.30;0.30;;;;;;;;;;7380206;19;20147;-74
2022/09/14 15:47:15;;;;;;;0.30;0.30;;;;;;;;;;7382650;19;20109;-74
2022/09/14 15:49:41;;;;;;;0.30;0.30;;;;;;;;;;7379532;19;20638;-75
2022/09/14 15:52:07;;;;;;;0.52;0.52;;;;;;;;;;7382665;19;20134;-74
2022/09/14 15:54:35;;;;;;;0.43;0.40;;;;;;;;;;7378885;19;20117;-74
2022/09/14 15:57:02;;;;;;;0.30;0.30;;;;;;;;;;7379659;19;20124;-75
2022/09/14 15:59:28;;;;;;;0.30;0.30;;;;;;;;;;7380513;19;20158;-75
2022/09/14 16:01:53;;;;;;;0.30;0.30;;;;;;;;;;7383520;19;20499;-76
2022/09/14 16:04:19;;;;;;;0.40;0.40;;;;;;;;;;7380961;19;20168;-75
2022/09/14 16:06:45;;;;;;;1.98;0.52;;;;;;;;;;7382345;19;20105;-74
2022/09/14 16:09:12;;;;;;;0.30;0.30;;;;;;;;;;7381622;19;20601;-74
2022/09/14 16:11:38;;;;;;;0.30;0.30;;;;;;;;;;7380964;19;20117;-75
2022/09/14 16:14:05;;;;;;;0.30;0.30;;;;;;;;;;7376819;19;20156;-74
2022/09/14 16:16:31;;;;;;;0.35;0.35;;;;;;;;;;7384623;19;20113;-74
2022/09/14 16:18:57;;;;;;;0.30;0.30;;;;;;;;;;7385897;19;20109;-74
2022/09/14 16:21:25;;;;;;;0.30;0.30;;;;;;;;;;7384189;19;20121;-75
2022/09/14 16:23:56;;;;;;;0.30;0.30;;;;;;;;;;7382299;19;20157;-74
2022/09/14 16:26:27;;;;;;;0.47;0.47;;;;;;;;;;7387250;19;20129;-74
2022/09/14 16:28:53;;;;;;;0.30;0.30;;;;;;;;;;7383944;19;20124;-74
2022/09/14 16:31:24;;;;;;;0.30;0.30;;;;;;;;;;7391072;19;20119;-75
2022/09/14 16:33:52;;;;;;;0.38;0.38;;;;;;;;;;7389730;19;20473;-74
2022/09/14 16:36:20;;;;;;;0.20;0.20;;;;;;;;;;7390939;19;20121;-74
2022/09/14 16:38:46;;;;;;;0.30;0.30;;;;;;;;;;7392177;19;20199;-74
2022/09/14 16:41:12;;;;;;;0.63;0.63;;;;;;;;;;7391998;19;20156;-74
2022/09/14 16:43:38;;;;;;;0.30;0.30;;;;;;;;;;7390625;19;20661;-74
2022/09/14 16:46:12;;;;;;;0.30;0.30;;;;;;;;;;7389999;19;20113;-73
2022/09/14 16:48:39;;;;;;;0.30;0.30;;;;;;;;;;7391402;19;20172;-74
2022/09/14 16:51:05;;;;;;;0.30;0.30;;;;;;;;;;7375112;19;20121;-75
2022/09/14 16:53:35;;;;;;;0.30;0.30;;;;;;;;;;7373224;19;20125;-73
2022/09/14 16:56:06;;;;;;;0.30;0.30;;;;;;;;;;7388580;19;20109;-73
2022/09/14 16:58:32;;;;;;;0.30;0.30;;;;;;;;;;7389846;19;20125;-74
2022/09/14 17:01:05;;;;;;;0.30;0.30;;;;;;;;;;7391286;19;20117;-75
2022/09/14 17:03:30;;;;;;;0.30;0.30;;;;;;;;;;7389502;19;20579;-74
2022/09/14 17:06:07;;;;;;;0.30;0.30;;;;;;;;;;7390405;19;20113;-74
2022/09/14 17:08:34;;;;;;;0.30;0.30;;;;;;;;;;7376326;19;20112;-74
2022/09/14 17:11:00;;;;;;;0.45;0.45;;;;;;;;;;7390194;19;20108;-73
2022/09/14 17:13:26;;;;;;;0.30;0.30;;;;;;;;;;7389267;19;20148;-73
2022/09/14 17:15:52;;;;;;;0.30;0.30;;;;;;;;;;7391449;19;20132;-74
2022/09/14 17:18:18;;;;;;;0.30;0.30;;;;;;;;;;7390208;19;20188;-74
2022/09/14 17:21:06;;;;;;;0.30;0.30;;;;;;;;;;7384822;19;20655;-74
2022/09/14 17:23:31;;;;;;;0.30;0.30;;;;;;;;;;7384685;19;20660;-73
2022/09/14 17:25:57;;;;;;;0.30;0.30;;;;;;;;;;7385830;19;20125;-73
2022/09/14 17:28:24;;;;;;;0.30;0.30;;;;;;;;;;7382769;19;20141;-73
2022/09/14 17:30:56;;;;;;;0.30;0.30;;;;;;;;;;7382799;19;20510;-74
2022/09/14 17:33:22;;;;;;;0.30;0.30;;;;;;;;;;7374584;19;20500;-74